createdAt,value
2018-05-21T00:01:15.948Z,53.30
2018-05-21T00:03:43.685Z,54.00
2018-05-21T00:06:12.320Z,53.40
2018-05-21T00:08:40.094Z,53.50
2018-05-21T00:11:07.807Z,54.00
2018-05-21T00:13:35.648Z,54.70
2018-05-21T00:16:03.342Z,54.10
2018-05-21T00:18:31.018Z,54.30
2018-05-21T00:20:58.771Z,54.40
2018-05-21T00:23:26.547Z,54.30
2018-05-21T00:25:54.325Z,54.50
2018-05-21T00:28:22.101Z,54.50
2018-05-21T00:30:49.774Z,54.60
2018-05-21T00:33:17.477Z,54.80
2018-05-21T00:35:45.168Z,55.10
2018-05-21T00:38:13.825Z,55.00
2018-05-21T00:40:41.607Z,55.40
2018-05-21T00:43:09.484Z,55.00
2018-05-21T00:45:37.173Z,55.00
2018-05-21T00:48:04.924Z,55.20
2018-05-21T00:50:32.610Z,55.40
2018-05-21T00:53:00.396Z,55.50
2018-05-21T00:55:36.962Z,56.10
2018-05-21T00:58:04.764Z,55.60
2018-05-21T01:00:32.516Z,55.50
2018-05-21T01:03:00.193Z,55.70
2018-05-21T01:05:27.985Z,55.80
2018-05-21T01:07:55.766Z,55.80
2018-05-21T01:10:23.518Z,56.00
2018-05-21T01:12:51.193Z,56.10
2018-05-21T01:15:19.071Z,56.00
2018-05-21T01:17:46.951Z,56.20
2018-05-21T01:20:14.808Z,56.20
2018-05-21T01:22:42.459Z,56.40
2018-05-21T01:25:10.277Z,56.50
2018-05-21T01:27:37.976Z,56.40
2018-05-21T01:30:05.748Z,56.40
2018-05-21T01:32:33.504Z,56.60
2018-05-21T01:35:01.200Z,56.30
2018-05-21T01:37:28.834Z,56.40
2018-05-21T01:39:56.548Z,56.30
2018-05-21T01:42:24.220Z,56.90
2018-05-21T01:44:52.079Z,56.80
2018-05-21T01:47:19.856Z,57.10
2018-05-21T01:49:47.763Z,57.10
2018-05-21T01:52:15.437Z,57.10
2018-05-21T01:54:43.212Z,57.10
2018-05-21T01:57:10.846Z,56.90
2018-05-21T01:59:38.645Z,57.10
2018-05-21T02:02:06.329Z,57.10
2018-05-21T02:04:33.980Z,56.30
2018-05-21T02:07:01.760Z,57.00
2018-05-21T02:09:29.453Z,57.40
2018-05-21T02:11:57.129Z,57.30
2018-05-21T02:14:24.890Z,55.80
2018-05-21T02:16:52.584Z,56.80
2018-05-21T02:19:20.251Z,57.40
2018-05-21T02:21:48.033Z,57.00
2018-05-21T02:24:15.805Z,56.90
2018-05-21T02:26:43.662Z,57.00
2018-05-21T02:29:11.352Z,57.30
2018-05-21T02:31:39.110Z,57.40
2018-05-21T02:34:06.813Z,57.40
2018-05-21T02:36:34.581Z,57.50
2018-05-21T02:39:02.336Z,57.50
2018-05-21T02:41:30.114Z,57.50
2018-05-21T02:43:57.813Z,57.50
2018-05-21T02:46:25.585Z,56.60
2018-05-21T02:48:53.342Z,57.40
2018-05-21T02:51:21.064Z,57.90
2018-05-21T02:53:48.893Z,55.20
2018-05-21T02:56:16.669Z,59.00
2018-05-21T02:58:44.445Z,58.90
2018-05-21T03:01:12.428Z,58.30
2018-05-21T03:03:40.201Z,58.10
2018-05-21T03:06:07.978Z,57.80
2018-05-21T03:08:35.677Z,58.20
2018-05-21T03:11:03.350Z,58.10
2018-05-21T03:13:31.128Z,57.70
2018-05-21T03:15:58.877Z,57.80
2018-05-21T03:18:26.577Z,57.70
2018-05-21T03:20:54.431Z,56.70
2018-05-21T03:23:22.228Z,56.60
2018-05-21T03:25:50.086Z,58.10
2018-05-21T03:28:18.067Z,58.30
2018-05-21T03:30:45.920Z,59.40
2018-05-21T03:33:13.822Z,58.90
2018-05-21T03:35:41.636Z,55.70
2018-05-21T03:38:09.312Z,58.20
2018-05-21T03:40:36.946Z,59.90
2018-05-21T03:43:04.624Z,59.60
2018-05-21T03:45:32.321Z,57.70
2018-05-21T03:48:00.176Z,59.70
2018-05-21T03:50:27.873Z,56.30
2018-05-21T03:52:55.514Z,58.90
2018-05-21T03:55:23.302Z,57.60
2018-05-21T03:57:51.200Z,58.50
2018-05-21T04:00:30.837Z,56.90
2018-05-21T04:03:10.591Z,58.30
2018-05-21T04:05:38.369Z,57.20
2018-05-21T04:08:06.248Z,55.80
2018-05-21T04:10:33.918Z,58.30
2018-05-21T04:13:01.595Z,58.70
2018-05-21T04:15:30.212Z,57.40
2018-05-21T04:17:57.967Z,58.60
2018-05-21T04:20:25.743Z,59.20
2018-05-21T04:22:53.520Z,57.50
2018-05-21T04:25:21.200Z,58.70
2018-05-21T04:27:48.976Z,58.50
2018-05-21T04:30:16.853Z,56.60
2018-05-21T04:32:44.758Z,57.40
2018-05-21T04:35:12.607Z,56.60
2018-05-21T04:37:40.278Z,54.80
2018-05-21T04:40:07.940Z,55.20
2018-05-21T04:42:35.626Z,54.40
2018-05-21T04:45:03.313Z,51.60
2018-05-21T04:47:31.101Z,48.30
2018-05-21T04:49:58.958Z,48.10
2018-05-21T04:52:26.733Z,46.90
2018-05-21T04:54:54.429Z,46.00
2018-05-21T04:57:22.100Z,46.10
2018-05-21T04:59:49.836Z,44.00
2018-05-21T05:02:17.735Z,45.10
2018-05-21T05:04:45.410Z,46.30
2018-05-21T05:07:13.272Z,44.80
2018-05-21T05:09:41.064Z,44.40
2018-05-21T05:12:08.861Z,48.10
2018-05-21T05:14:36.484Z,51.10
2018-05-21T05:17:05.032Z,51.70
2018-05-21T05:19:32.680Z,51.70
2018-05-21T05:22:00.388Z,51.50
2018-05-21T05:24:28.022Z,49.80
2018-05-21T05:26:55.805Z,49.00
2018-05-21T05:29:23.478Z,48.90
2018-05-21T05:31:51.256Z,48.90
2018-05-21T05:34:18.892Z,47.90
2018-05-21T05:36:47.604Z,45.60
2018-05-21T05:39:15.506Z,45.50
2018-05-21T05:41:43.417Z,48.30
2018-05-21T05:44:11.165Z,50.90
2018-05-21T05:46:39.041Z,53.40
2018-05-21T05:49:06.814Z,51.80
2018-05-21T05:51:34.485Z,52.60
2018-05-21T05:54:02.161Z,52.10
2018-05-21T05:56:29.960Z,47.80
2018-05-21T05:58:57.660Z,45.20
2018-05-21T06:01:25.491Z,48.40
2018-05-21T06:03:53.169Z,47.90
2018-05-21T06:06:20.861Z,49.70
2018-05-21T06:08:48.821Z,49.50
2018-05-21T06:11:16.597Z,50.70
2018-05-21T06:13:44.404Z,50.70
2018-05-21T06:16:12.258Z,48.80
2018-05-21T06:18:40.028Z,47.10
2018-05-21T06:21:07.803Z,48.70
2018-05-21T06:23:35.579Z,47.30
2018-05-21T06:26:03.257Z,47.50
2018-05-21T06:28:30.953Z,45.50
2018-05-21T06:30:58.588Z,46.10
2018-05-21T06:33:26.378Z,44.60
2018-05-21T06:35:54.154Z,45.50
2018-05-21T06:38:21.980Z,44.70
2018-05-21T06:40:50.012Z,42.80
2018-05-21T06:43:17.993Z,43.20
2018-05-21T06:45:46.286Z,44.60
2018-05-21T06:48:14.266Z,44.60
2018-05-21T06:50:42.042Z,44.70
2018-05-21T06:53:09.835Z,44.30
2018-05-21T06:55:37.470Z,44.50
2018-05-21T06:58:05.200Z,44.60
2018-05-21T07:00:32.944Z,43.70
2018-05-21T07:03:00.619Z,43.80
2018-05-21T07:05:28.323Z,44.00
2018-05-21T07:07:55.995Z,42.70
2018-05-21T07:10:24.563Z,40.30
2018-05-21T07:12:52.237Z,40.20
2018-05-21T07:15:20.014Z,40.60
2018-05-21T07:17:47.790Z,39.80
2018-05-21T07:20:15.672Z,39.90
2018-05-21T07:22:43.755Z,40.90
2018-05-21T07:25:11.745Z,41.80
2018-05-21T07:27:39.507Z,43.30
2018-05-21T07:30:07.244Z,43.90
2018-05-21T07:32:35.785Z,42.40
2018-05-21T07:35:03.583Z,42.30
2018-05-21T07:37:31.357Z,41.50
2018-05-21T07:39:59.107Z,41.30
2018-05-21T07:42:26.794Z,40.70
2018-05-21T07:44:54.642Z,42.00
2018-05-21T07:47:22.438Z,40.70
2018-05-21T07:49:50.318Z,39.60
2018-05-21T07:52:18.013Z,40.40
2018-05-21T07:54:45.767Z,40.40
2018-05-21T07:57:13.574Z,40.60
2018-05-21T07:59:41.236Z,40.60
2018-05-21T08:02:09.026Z,41.00
2018-05-21T08:04:36.767Z,40.20
2018-05-21T08:07:04.488Z,41.70
2018-05-21T08:09:32.129Z,40.90
2018-05-21T08:11:59.891Z,40.50
2018-05-21T08:14:27.681Z,40.10
2018-05-21T08:16:55.547Z,42.30
2018-05-21T08:19:23.324Z,42.00
2018-05-21T08:21:51.100Z,40.40
2018-05-21T08:24:18.776Z,41.10
2018-05-21T08:26:46.463Z,41.60
2018-05-21T08:29:14.145Z,40.30
2018-05-21T08:31:41.955Z,40.40
2018-05-21T08:34:10.388Z,40.50
2018-05-21T08:36:38.084Z,40.50
2018-05-21T08:39:05.839Z,39.80
2018-05-21T08:41:33.616Z,40.70
2018-05-21T08:44:01.393Z,40.50
2018-05-21T08:46:29.089Z,38.60
2018-05-21T08:48:56.948Z,37.60
2018-05-21T08:51:24.640Z,40.00
2018-05-21T08:53:52.320Z,41.80
2018-05-21T08:56:20.075Z,41.80
2018-05-21T08:58:48.068Z,41.90
2018-05-21T09:01:16.546Z,39.60
2018-05-21T09:03:44.425Z,39.70
2018-05-21T09:06:12.108Z,39.70
2018-05-21T09:08:39.873Z,39.00
2018-05-21T09:11:07.650Z,40.00
2018-05-21T09:13:35.344Z,40.30
2018-05-21T09:16:03.153Z,39.80
2018-05-21T09:18:31.700Z,41.00
2018-05-21T09:20:59.473Z,40.90
2018-05-21T09:23:27.351Z,38.90
2018-05-21T09:25:55.020Z,39.00
2018-05-21T09:28:22.648Z,38.20
2018-05-21T09:30:51.113Z,40.80
2018-05-21T09:33:18.798Z,40.60
2018-05-21T09:35:46.644Z,37.40
2018-05-21T09:38:14.421Z,40.00
2018-05-21T09:40:42.133Z,38.30
2018-05-21T09:43:09.796Z,39.20
2018-05-21T09:45:37.469Z,40.20
2018-05-21T09:48:05.226Z,41.00
2018-05-21T09:50:32.992Z,37.90
2018-05-21T09:53:00.768Z,37.70
2018-05-21T09:55:28.546Z,39.70
2018-05-21T09:57:56.244Z,39.60
2018-05-21T10:00:24.305Z,39.30
2018-05-21T10:02:52.079Z,42.10
2018-05-21T10:05:19.858Z,39.20
2018-05-21T10:07:47.555Z,39.90
2018-05-21T10:10:15.222Z,39.20
2018-05-21T10:12:43.001Z,37.70
2018-05-21T10:15:10.776Z,39.40
2018-05-21T10:17:38.404Z,38.00
2018-05-21T10:20:06.136Z,39.70
2018-05-21T10:22:35.418Z,38.90
2018-05-21T10:25:03.111Z,38.90
2018-05-21T10:27:30.971Z,38.20
2018-05-21T10:29:58.668Z,39.00
2018-05-21T10:32:26.524Z,38.90
2018-05-21T10:34:54.198Z,38.10
2018-05-21T10:37:22.049Z,37.70
2018-05-21T10:39:49.646Z,36.90
2018-05-21T10:42:17.358Z,37.80
2018-05-21T10:44:45.233Z,38.90
2018-05-21T10:47:13.182Z,38.40
2018-05-21T10:49:40.958Z,41.00
2018-05-21T10:52:08.632Z,40.20
2018-05-21T10:54:36.409Z,39.40
2018-05-21T10:57:04.184Z,39.10
2018-05-21T10:59:31.960Z,38.90
2018-05-21T11:01:59.738Z,37.80
2018-05-21T11:04:27.432Z,37.90
2018-05-21T11:06:55.295Z,38.50
2018-05-21T11:09:22.962Z,37.70
2018-05-21T11:11:50.764Z,39.70
2018-05-21T11:14:18.620Z,39.10
2018-05-21T11:16:46.497Z,37.30
2018-05-21T11:19:14.376Z,38.50
2018-05-21T11:21:42.216Z,37.60
2018-05-21T11:24:10.030Z,36.70
2018-05-21T11:26:37.725Z,38.00
2018-05-21T11:29:05.583Z,37.20
2018-05-21T11:31:33.359Z,39.40
2018-05-21T11:34:01.135Z,38.20
2018-05-21T11:36:28.839Z,39.10
2018-05-21T11:38:56.610Z,39.50
2018-05-21T11:41:24.290Z,39.30
2018-05-21T11:43:52.138Z,38.60
2018-05-21T11:46:19.942Z,37.50
2018-05-21T11:48:47.692Z,37.40
2018-05-21T11:51:15.478Z,37.90
2018-05-21T11:53:43.168Z,37.60
2018-05-21T11:56:10.804Z,37.40
2018-05-21T11:58:38.590Z,36.60
2018-05-21T12:01:06.366Z,37.00
2018-05-21T12:03:34.076Z,35.20
2018-05-21T12:06:01.737Z,33.70
2018-05-21T12:08:29.515Z,33.70
2018-05-21T12:10:57.192Z,32.70
2018-05-21T12:13:25.093Z,34.60
2018-05-21T12:15:52.820Z,33.30
2018-05-21T12:18:20.596Z,33.20
2018-05-21T12:20:48.270Z,31.00
2018-05-21T12:23:16.047Z,30.60
2018-05-21T12:25:43.850Z,30.80
2018-05-21T12:28:11.528Z,31.30
2018-05-21T12:30:39.377Z,29.70
2018-05-21T12:33:07.154Z,29.70
2018-05-21T12:35:34.926Z,28.70
2018-05-21T12:38:02.837Z,28.90
2018-05-21T12:40:30.604Z,29.20
2018-05-21T12:42:58.277Z,30.10
2018-05-21T12:45:26.141Z,29.20
2018-05-21T12:47:53.833Z,29.20
2018-05-21T12:50:21.692Z,29.90
2018-05-21T12:52:49.467Z,29.30
2018-05-21T12:55:20.653Z,29.90
2018-05-21T12:57:48.401Z,29.20
2018-05-21T13:00:16.130Z,29.30
2018-05-21T13:02:44.675Z,29.70
2018-05-21T13:05:12.588Z,29.70
2018-05-21T13:07:41.064Z,29.70
2018-05-21T13:10:08.949Z,29.80
2018-05-21T13:12:36.812Z,29.20
2018-05-21T13:15:04.785Z,30.40
2018-05-21T13:17:32.562Z,29.60
2018-05-21T13:20:00.341Z,28.70
2018-05-21T13:22:28.226Z,29.70
2018-05-21T13:24:55.914Z,29.40
2018-05-21T13:27:23.770Z,29.50
2018-05-21T13:29:51.544Z,28.80
2018-05-21T13:32:19.550Z,29.20
2018-05-21T13:34:47.227Z,30.00
2018-05-21T13:37:15.080Z,29.20
2018-05-21T13:39:42.777Z,28.30
2018-05-21T13:42:10.630Z,27.80
2018-05-21T13:44:38.409Z,28.80
2018-05-21T13:47:06.099Z,28.60
2018-05-21T13:49:34.088Z,29.30
2018-05-21T13:52:01.983Z,28.20
2018-05-21T13:54:30.426Z,27.80
2018-05-21T13:56:58.212Z,27.80
2018-05-21T13:59:25.992Z,27.40
2018-05-21T14:01:53.764Z,27.10
2018-05-21T14:04:21.464Z,26.80
2018-05-21T14:06:50.914Z,27.20
2018-05-21T14:09:20.209Z,28.40
2018-05-21T14:11:48.875Z,28.40
2018-05-21T14:14:17.276Z,28.20
2018-05-21T14:16:45.439Z,28.20
2018-05-21T14:19:13.154Z,27.20
2018-05-21T14:21:42.386Z,27.90
2018-05-21T14:24:10.919Z,28.10
2018-05-21T14:26:38.591Z,28.00
2018-05-21T14:29:06.369Z,27.80
2018-05-21T14:31:34.072Z,27.90
2018-05-21T14:34:01.934Z,28.50
2018-05-21T14:36:29.617Z,26.80
2018-05-21T14:38:57.474Z,27.40
2018-05-21T14:41:25.170Z,26.80
2018-05-21T14:43:52.952Z,27.70
2018-05-21T14:46:20.600Z,27.30
2018-05-21T14:48:48.374Z,26.50
2018-05-21T14:51:16.080Z,27.50
2018-05-21T14:53:44.338Z,27.70
2018-05-21T14:56:12.319Z,28.10
2018-05-21T14:58:40.195Z,26.50
2018-05-21T15:01:07.833Z,27.20
2018-05-21T15:03:36.568Z,27.30
2018-05-21T15:06:04.447Z,27.20
2018-05-21T15:08:32.224Z,27.10
2018-05-21T15:10:59.896Z,27.60
2018-05-21T15:13:27.678Z,25.70
2018-05-21T15:15:55.321Z,26.40
2018-05-21T15:18:23.123Z,26.60
2018-05-21T15:20:51.002Z,26.10
2018-05-21T15:23:18.672Z,28.00
2018-05-21T15:25:46.455Z,27.30
2018-05-21T15:28:14.245Z,27.90
2018-05-21T15:30:42.106Z,29.00
2018-05-21T15:33:09.804Z,28.50
2018-05-21T15:35:37.659Z,28.40
2018-05-21T15:38:05.439Z,28.20
2018-05-21T15:40:33.229Z,29.70
2018-05-21T15:43:01.197Z,29.30
2018-05-21T15:45:29.072Z,30.00
2018-05-21T15:47:56.770Z,29.90
2018-05-21T15:50:24.551Z,29.70
2018-05-21T15:52:52.216Z,31.40
2018-05-21T15:55:19.893Z,29.80
2018-05-21T15:57:47.596Z,29.50
2018-05-21T16:00:16.052Z,30.00
2018-05-21T16:02:43.815Z,28.40
2018-05-21T16:05:11.529Z,29.30
2018-05-21T16:07:39.182Z,28.90
2018-05-21T16:10:07.057Z,29.90
2018-05-21T16:12:34.716Z,29.90
2018-05-21T16:15:02.593Z,30.60
2018-05-21T16:17:30.370Z,30.90
2018-05-21T16:19:58.064Z,30.40
2018-05-21T16:22:25.843Z,32.80
2018-05-21T16:24:53.516Z,32.70
2018-05-21T16:27:21.373Z,32.80
2018-05-21T16:29:49.147Z,31.80
2018-05-21T16:32:17.258Z,31.50
2018-05-21T16:34:45.114Z,30.60
2018-05-21T16:37:13.398Z,30.80
2018-05-21T16:39:41.274Z,30.50
2018-05-21T16:42:09.051Z,31.20
2018-05-21T16:44:36.847Z,29.90
2018-05-21T16:47:04.640Z,30.20
2018-05-21T16:49:32.388Z,33.60
2018-05-21T16:52:00.079Z,33.50
2018-05-21T16:54:27.756Z,31.60
2018-05-21T16:56:55.532Z,32.60
2018-05-21T16:59:23.200Z,31.20
2018-05-21T17:01:50.977Z,31.80
2018-05-21T17:04:18.881Z,33.20
2018-05-21T17:06:47.429Z,32.40
2018-05-21T17:09:15.646Z,32.40
2018-05-21T17:11:43.104Z,31.80
2018-05-21T17:14:10.861Z,32.80
2018-05-21T17:16:38.533Z,32.80
2018-05-21T17:19:06.414Z,33.10
2018-05-21T17:21:34.109Z,33.70
2018-05-21T17:24:02.171Z,32.80
2018-05-21T17:26:29.952Z,34.10
2018-05-21T17:28:57.844Z,34.60
2018-05-21T17:31:25.602Z,35.30
2018-05-21T17:33:53.482Z,33.90
2018-05-21T17:36:21.153Z,34.20
2018-05-21T17:38:48.848Z,34.30
2018-05-21T17:41:16.810Z,35.30
2018-05-21T17:43:44.689Z,35.80
2018-05-21T17:46:12.466Z,35.70
2018-05-21T17:48:40.239Z,35.20
2018-05-21T17:51:07.915Z,35.40
2018-05-21T17:53:35.792Z,35.00
2018-05-21T17:56:03.573Z,34.80
2018-05-21T17:58:31.345Z,35.00
2018-05-21T18:00:59.040Z,35.80
2018-05-21T18:03:26.795Z,36.10
2018-05-21T18:05:54.476Z,36.60
2018-05-21T18:08:23.153Z,36.80
2018-05-21T18:10:51.046Z,36.80
2018-05-21T18:13:19.154Z,36.40
2018-05-21T18:15:47.526Z,36.60
2018-05-21T18:18:15.504Z,36.40
2018-05-21T18:20:43.600Z,37.10
2018-05-21T18:23:11.253Z,36.90
2018-05-21T18:25:39.134Z,36.10
2018-05-21T18:28:06.917Z,36.60
2018-05-21T18:30:34.589Z,36.60
2018-05-21T18:33:02.284Z,37.80
2018-05-21T18:35:30.062Z,37.90
2018-05-21T18:37:57.819Z,38.40
2018-05-21T18:40:25.595Z,38.70
2018-05-21T18:42:53.372Z,37.80
2018-05-21T18:45:21.114Z,38.20
2018-05-21T18:47:49.645Z,38.10
2018-05-21T18:50:18.441Z,37.90
2018-05-21T18:52:46.867Z,37.60
2018-05-21T18:55:15.645Z,37.10
2018-05-21T18:57:43.954Z,37.10
2018-05-21T19:00:12.649Z,37.70
2018-05-21T19:02:40.342Z,37.60
2018-05-21T19:05:08.174Z,39.30
2018-05-21T19:07:35.841Z,39.90
2018-05-21T19:10:04.243Z,41.10
2018-05-21T19:12:32.142Z,40.90
2018-05-21T19:14:59.790Z,41.40
2018-05-21T19:17:27.567Z,40.10
2018-05-21T19:19:55.344Z,41.60
2018-05-21T19:22:23.049Z,40.60
2018-05-21T19:24:50.896Z,40.40
2018-05-21T19:27:19.037Z,40.60
2018-05-21T19:29:47.001Z,41.40
2018-05-21T19:32:15.032Z,41.40
2018-05-21T19:34:43.031Z,40.30
2018-05-21T19:37:10.905Z,40.40
2018-05-21T19:39:38.550Z,40.30
2018-05-21T19:42:06.250Z,40.70
2018-05-21T19:44:33.948Z,40.90
2018-05-21T19:47:01.624Z,41.40
2018-05-21T19:49:29.403Z,41.60
2018-05-21T19:51:57.162Z,42.10
2018-05-21T19:54:24.851Z,41.70
2018-05-21T19:56:52.606Z,41.50
2018-05-21T19:59:20.274Z,40.60
2018-05-21T20:01:47.983Z,40.50
2018-05-21T20:04:15.730Z,41.00
2018-05-21T20:06:43.509Z,40.50
2018-05-21T20:09:11.211Z,40.70
2018-05-21T20:11:39.640Z,42.40
2018-05-21T20:14:08.164Z,43.00
2018-05-21T20:16:35.890Z,43.00
2018-05-21T20:19:03.721Z,42.10
2018-05-21T20:21:31.497Z,42.10
2018-05-21T20:23:59.166Z,43.10
2018-05-21T20:26:26.865Z,43.30
2018-05-21T20:28:54.720Z,42.90
2018-05-21T20:31:22.583Z,42.90
2018-05-21T20:33:50.396Z,43.40
2018-05-21T20:36:18.195Z,43.10
2018-05-21T20:38:46.110Z,42.30
2018-05-21T20:41:13.910Z,43.40
2018-05-21T20:43:41.715Z,43.30
2018-05-21T20:46:10.278Z,44.50
2018-05-21T20:48:38.055Z,43.90
2018-05-21T20:51:05.748Z,43.80
2018-05-21T20:53:33.505Z,44.20
2018-05-21T20:56:01.289Z,43.90
2018-05-21T20:58:28.986Z,44.40
2018-05-21T21:00:56.840Z,44.30
2018-05-21T21:03:24.616Z,44.00
2018-05-21T21:05:52.393Z,45.70
2018-05-21T21:08:20.088Z,45.30
2018-05-21T21:10:47.944Z,46.00
2018-05-21T21:13:15.723Z,47.40
2018-05-21T21:15:43.649Z,46.80
2018-05-21T21:18:12.420Z,45.80
2018-05-21T21:20:40.093Z,45.80
2018-05-21T21:23:07.731Z,47.60
2018-05-21T21:25:35.445Z,50.40
2018-05-21T21:28:03.300Z,52.30
2018-05-21T21:30:30.997Z,51.00
2018-05-21T21:32:58.731Z,51.70
2018-05-21T21:35:27.244Z,49.70
2018-05-21T21:37:54.940Z,49.70
2018-05-21T21:40:22.576Z,51.30
2018-05-21T21:42:50.369Z,53.10
2018-05-21T21:45:18.044Z,54.10
2018-05-21T21:47:45.849Z,56.70
2018-05-21T21:50:13.801Z,54.60
2018-05-21T21:52:41.822Z,54.90
2018-05-21T21:55:09.663Z,53.30
2018-05-21T21:57:37.436Z,56.40
2018-05-21T22:00:05.928Z,55.90
2018-05-21T22:02:33.594Z,54.10
2018-05-21T22:05:01.380Z,57.70
2018-05-21T22:07:29.155Z,59.00
2018-05-21T22:09:56.932Z,56.70
2018-05-21T22:12:24.811Z,58.20
2018-05-21T22:14:52.589Z,62.00
2018-05-21T22:17:20.981Z,65.50
2018-05-21T22:19:48.676Z,65.50
2018-05-21T22:22:16.531Z,63.60
2018-05-21T22:24:44.337Z,67.60
2018-05-21T22:27:12.084Z,62.10
2018-05-21T22:29:39.857Z,62.20
2018-05-21T22:32:07.660Z,62.40
2018-05-21T22:34:35.410Z,68.50
2018-05-21T22:37:03.107Z,67.80
2018-05-21T22:39:30.884Z,66.30
2018-05-21T22:41:58.641Z,64.60
2018-05-21T22:44:26.519Z,66.10
2018-05-21T22:46:54.193Z,63.20
2018-05-21T22:49:22.076Z,65.80
2018-05-21T22:51:49.712Z,65.50
2018-05-21T22:54:30.104Z,64.30
2018-05-21T22:56:57.748Z,64.30
2018-05-21T22:59:26.285Z,63.80
2018-05-21T23:01:54.063Z,63.60
2018-05-21T23:04:21.756Z,61.10
2018-05-21T23:06:49.440Z,60.80
2018-05-21T23:09:17.290Z,61.10
2018-05-21T23:11:45.165Z,60.50
2018-05-21T23:14:12.953Z,60.60
2018-05-21T23:16:40.638Z,60.90
2018-05-21T23:19:08.413Z,60.80
2018-05-21T23:21:36.168Z,60.80
2018-05-21T23:24:03.874Z,61.80
2018-05-21T23:26:31.641Z,61.80
2018-05-21T23:28:59.320Z,61.30
2018-05-21T23:31:27.170Z,61.40
2018-05-21T23:33:54.946Z,62.20
2018-05-21T23:36:22.749Z,63.70
2018-05-21T23:38:50.503Z,63.70
2018-05-21T23:41:18.378Z,65.50
2018-05-21T23:43:46.155Z,63.60
2018-05-21T23:46:14.034Z,64.60
2018-05-21T23:48:41.710Z,67.30
2018-05-21T23:51:09.581Z,66.90
2018-05-21T23:53:38.077Z,71.70
2018-05-21T23:56:05.855Z,71.60
2018-05-21T23:58:33.480Z,70.40
